createdAt,value
2019-04-07T00:00:02.805Z,99157.75
2019-04-07T00:02:31.755Z,99156.98
2019-04-07T00:05:10.193Z,99153.77
2019-04-07T00:07:31.016Z,99156.89
2019-04-07T00:09:59.718Z,99157.61
2019-04-07T00:12:29.254Z,99158.73
2019-04-07T00:14:58.027Z,99157.45
2019-04-07T00:17:27.245Z,99152.75
2019-04-07T00:19:55.973Z,99154.72
2019-04-07T00:22:24.645Z,99149.83
2019-04-07T00:24:53.350Z,99152.69
2019-04-07T00:27:22.964Z,99142.04
2019-04-07T00:29:52.513Z,99142.64
2019-04-07T00:32:27.394Z,99154.30
2019-04-07T00:34:59.988Z,99151.57
2019-04-07T00:37:33.647Z,99147.25
2019-04-07T00:40:08.620Z,99144.97
2019-04-07T00:42:41.336Z,99147.30
2019-04-07T00:45:12.943Z,99142.25
2019-04-07T00:47:41.785Z,99138.56
2019-04-07T00:50:11.182Z,99136.73
2019-04-07T00:52:40.262Z,99140.34
2019-04-07T00:55:09.962Z,99141.42
2019-04-07T00:57:38.742Z,99132.59
2019-04-07T01:00:10.588Z,99137.16
2019-04-07T01:02:39.857Z,99132.92
2019-04-07T01:05:08.857Z,99129.49
2019-04-07T01:07:37.497Z,99131.56
2019-04-07T01:10:06.427Z,99128.78
2019-04-07T01:12:35.853Z,99130.16
2019-04-07T01:15:06.096Z,99130.70
2019-04-07T01:17:35.074Z,99122.33
2019-04-07T01:20:05.253Z,99124.00
2019-04-07T01:22:34.614Z,99116.50
2019-04-07T01:25:06.073Z,99112.47
2019-04-07T01:27:34.894Z,99111.72
2019-04-07T01:30:04.818Z,99114.91
2019-04-07T01:32:33.361Z,99114.81
2019-04-07T01:35:02.482Z,99109.81
2019-04-07T01:37:31.622Z,99109.09
2019-04-07T01:40:00.339Z,99113.44
2019-04-07T01:43:01.075Z,99103.79
2019-04-07T01:45:43.417Z,99109.22
2019-04-07T01:48:25.723Z,99110.58
2019-04-07T01:51:16.878Z,99105.30
2019-04-07T01:54:14.047Z,99096.09
2019-04-07T01:57:04.730Z,99100.01
2019-04-07T02:00:00.763Z,99097.17
2019-04-07T02:02:41.337Z,99095.14
2019-04-07T02:05:32.696Z,99097.15
2019-04-07T02:08:08.675Z,99095.75
2019-04-07T02:10:58.229Z,99088.45
2019-04-07T02:13:52.478Z,99093.08
2019-04-07T02:16:41.136Z,99089.70
2019-04-07T02:19:14.094Z,99092.87
2019-04-07T02:22:17.035Z,99091.66
2019-04-07T02:24:58.722Z,99085.03
2019-04-07T02:27:42.702Z,99087.49
2019-04-07T02:30:33.789Z,99084.55
2019-04-07T02:33:12.804Z,99085.33
2019-04-07T02:36:15.710Z,99077.89
2019-04-07T02:38:42.384Z,99080.63
2019-04-07T02:41:30.451Z,99078.20
2019-04-07T02:44:17.972Z,99084.52
2019-04-07T02:47:12.261Z,99070.43
2019-04-07T02:49:55.896Z,99070.02
2019-04-07T02:52:57.218Z,99068.12
2019-04-07T02:55:42.279Z,99074.15
2019-04-07T02:58:21.112Z,99070.71
2019-04-07T03:01:27.794Z,99075.77
2019-04-07T03:04:20.529Z,99074.82
2019-04-07T03:07:03.282Z,99069.67
2019-04-07T03:09:45.485Z,99076.94
2019-04-07T03:12:33.206Z,99075.20
2019-04-07T03:15:11.082Z,99067.20
2019-04-07T03:17:51.967Z,99070.43
2019-04-07T03:20:37.645Z,99067.48
2019-04-07T03:23:26.522Z,99066.34
2019-04-07T03:26:17.191Z,99070.83
2019-04-07T03:29:11.847Z,99072.95
2019-04-07T03:32:08.541Z,99070.91
2019-04-07T03:35:06.474Z,99076.30
2019-04-07T03:38:07.790Z,99078.73
2019-04-07T03:40:55.383Z,99075.64
2019-04-07T03:43:50.771Z,99077.72
2019-04-07T03:46:29.464Z,99078.11
2019-04-07T03:49:16.923Z,99073.72
2019-04-07T03:51:51.660Z,99078.00
2019-04-07T03:54:46.504Z,99084.55
2019-04-07T03:57:50.678Z,99085.55
2019-04-07T04:01:29.979Z,99082.62
2019-04-07T04:04:19.006Z,99082.61
2019-04-07T04:07:20.296Z,99086.08
2019-04-07T04:09:54.416Z,99087.80
2019-04-07T04:12:34.086Z,99088.16
2019-04-07T04:15:08.840Z,99085.07
2019-04-07T04:17:37.525Z,99090.54
2019-04-07T04:20:08.263Z,99087.75
2019-04-07T04:22:37.753Z,99088.41
2019-04-07T04:25:07.329Z,99094.32
2019-04-07T04:27:36.888Z,99097.35
2019-04-07T04:30:07.182Z,99098.77
2019-04-07T04:32:35.742Z,99099.45
2019-04-07T04:35:05.175Z,99093.76
2019-04-07T04:37:41.857Z,99091.17
2019-04-07T04:40:05.823Z,99090.53
2019-04-07T04:42:35.616Z,99089.06
2019-04-07T04:45:06.230Z,99089.74
2019-04-07T04:47:34.974Z,99096.84
2019-04-07T04:50:06.322Z,99096.88
2019-04-07T04:52:36.269Z,99099.13
2019-04-07T04:55:05.350Z,99094.68
2019-04-07T04:57:34.305Z,99094.06
2019-04-07T05:00:05.337Z,99090.64
2019-04-07T05:02:34.696Z,99085.42
2019-04-07T05:05:04.058Z,99089.03
2019-04-07T05:07:32.770Z,99105.38
2019-04-07T05:10:01.574Z,99103.00
2019-04-07T05:12:30.394Z,99102.34
2019-04-07T05:14:58.947Z,99099.80
2019-04-07T05:17:27.552Z,99101.58
2019-04-07T05:19:56.614Z,99101.73
2019-04-07T05:22:25.704Z,99102.56
2019-04-07T05:24:54.390Z,99097.83
2019-04-07T05:27:22.943Z,99100.41
2019-04-07T05:29:52.058Z,99098.59
2019-04-07T05:32:21.218Z,99099.02
2019-04-07T05:34:50.560Z,99102.69
2019-04-07T05:37:19.225Z,99098.95
2019-04-07T05:39:48.394Z,99100.66
2019-04-07T05:42:17.505Z,99111.93
2019-04-07T05:44:46.234Z,99110.68
2019-04-07T05:47:15.536Z,99107.81
2019-04-07T05:49:44.587Z,99113.16
2019-04-07T05:52:13.982Z,99107.92
2019-04-07T05:54:42.904Z,99112.47
2019-04-07T05:57:11.934Z,99105.75
2019-04-07T05:59:42.266Z,99106.76
2019-04-07T06:02:11.167Z,99105.52
2019-04-07T06:04:40.388Z,99111.62
2019-04-07T06:07:09.176Z,99104.09
2019-04-07T06:09:37.830Z,99099.66
2019-04-07T06:12:09.612Z,99094.00
2019-04-07T06:14:36.967Z,99093.95
2019-04-07T06:17:06.412Z,99102.16
2019-04-07T06:19:40.544Z,99102.93
2019-04-07T06:22:07.606Z,99102.67
2019-04-07T06:24:36.100Z,99103.64
2019-04-07T06:27:05.505Z,99105.77
2019-04-07T06:29:34.452Z,99105.30
2019-04-07T06:32:05.233Z,99103.88
2019-04-07T06:34:33.874Z,99107.13
2019-04-07T06:37:02.491Z,99106.45
2019-04-07T06:39:32.227Z,99110.05
2019-04-07T06:42:02.386Z,99111.59
2019-04-07T06:44:31.263Z,99117.11
2019-04-07T06:47:18.774Z,99121.12
2019-04-07T06:50:25.805Z,99114.94
2019-04-07T06:53:01.095Z,99123.49
2019-04-07T06:55:48.652Z,99121.36
2019-04-07T06:58:42.962Z,99123.97
2019-04-07T07:01:27.442Z,99117.89
2019-04-07T07:04:14.190Z,99126.65
2019-04-07T07:07:06.282Z,99129.84
2019-04-07T07:10:17.032Z,99122.58
2019-04-07T07:12:48.736Z,99118.60
2019-04-07T07:15:43.833Z,99123.23
2019-04-07T07:18:38.120Z,99119.97
2019-04-07T07:21:25.173Z,99129.66
2019-04-07T07:23:53.985Z,99122.17
2019-04-07T07:26:23.414Z,99125.36
2019-04-07T07:28:53.011Z,99119.57
2019-04-07T07:31:25.245Z,99123.17
2019-04-07T07:33:52.865Z,99123.92
2019-04-07T07:36:22.787Z,99127.75
2019-04-07T07:38:58.869Z,99126.25
2019-04-07T07:41:24.467Z,99131.60
2019-04-07T07:43:54.829Z,99127.09
2019-04-07T07:46:23.879Z,99130.08
2019-04-07T07:48:57.071Z,99133.53
2019-04-07T07:51:23.649Z,99134.02
2019-04-07T07:53:52.692Z,99128.69
2019-04-07T07:56:22.303Z,99136.72
2019-04-07T07:58:50.881Z,99132.75
2019-04-07T08:01:19.439Z,99132.25
2019-04-07T08:03:51.763Z,99135.17
2019-04-07T08:06:19.372Z,99133.11
2019-04-07T08:08:48.588Z,99134.23
2019-04-07T08:11:17.970Z,99135.73
2019-04-07T08:13:47.489Z,99140.41
2019-04-07T08:16:16.430Z,99131.22
2019-04-07T08:18:46.443Z,99136.66
2019-04-07T08:21:18.484Z,99139.69
2019-04-07T08:23:45.884Z,99139.39
2019-04-07T08:26:14.731Z,99135.73
2019-04-07T08:28:43.925Z,99129.33
2019-04-07T08:31:13.257Z,99136.77
2019-04-07T08:33:42.175Z,99128.59
2019-04-07T08:36:13.003Z,99130.21
2019-04-07T08:38:41.376Z,99131.22
2019-04-07T08:41:11.563Z,99133.31
2019-04-07T08:43:40.928Z,99131.72
2019-04-07T08:46:09.933Z,99127.20
2019-04-07T08:48:38.943Z,99127.27
2019-04-07T08:51:08.505Z,99130.76
2019-04-07T08:53:37.794Z,99133.67
2019-04-07T08:56:08.796Z,99137.85
2019-04-07T08:58:38.906Z,99134.44
2019-04-07T09:01:08.582Z,99139.05
2019-04-07T09:03:37.449Z,99137.00
2019-04-07T09:06:06.284Z,99137.15
2019-04-07T09:08:37.938Z,99137.08
2019-04-07T09:11:14.504Z,99132.84
2019-04-07T09:13:49.722Z,99135.56
2019-04-07T09:16:52.724Z,99138.89
2019-04-07T09:19:44.248Z,99137.45
2019-04-07T09:22:30.650Z,99132.69
2019-04-07T09:25:25.048Z,99133.41
2019-04-07T09:28:13.389Z,99125.70
2019-04-07T09:31:01.175Z,99131.03
2019-04-07T09:33:49.922Z,99129.67
2019-04-07T09:36:34.286Z,99127.03
2019-04-07T09:39:23.633Z,99133.80
2019-04-07T09:42:08.144Z,99129.70
2019-04-07T09:45:07.429Z,99130.00
2019-04-07T09:47:55.295Z,99131.90
2019-04-07T09:50:46.101Z,99121.59
2019-04-07T09:53:34.972Z,99117.55
2019-04-07T09:56:31.769Z,99113.45
2019-04-07T09:59:31.861Z,99112.55
2019-04-07T10:02:22.751Z,99118.45
2019-04-07T10:05:14.024Z,99115.42
2019-04-07T10:08:13.882Z,99116.52
2019-04-07T10:11:05.312Z,99115.20
2019-04-07T10:13:47.753Z,99111.78
2019-04-07T10:16:35.392Z,99110.27
2019-04-07T10:19:33.428Z,99111.47
2019-04-07T10:22:18.357Z,99109.69
2019-04-07T10:25:11.026Z,99105.16
2019-04-07T10:27:57.118Z,99104.45
2019-04-07T10:30:48.398Z,99097.04
2019-04-07T10:33:24.227Z,99092.19
2019-04-07T10:36:11.267Z,99095.64
2019-04-07T10:38:50.910Z,99097.39
2019-04-07T10:41:38.242Z,99089.79
2019-04-07T10:44:26.658Z,99086.84
2019-04-07T10:47:13.860Z,99087.96
2019-04-07T10:50:06.188Z,99087.77
2019-04-07T10:52:53.503Z,99085.70
2019-04-07T10:55:38.054Z,99083.30
2019-04-07T10:58:18.671Z,99079.19
2019-04-07T11:01:22.175Z,99079.73
2019-04-07T11:04:16.999Z,99082.64
2019-04-07T11:07:06.436Z,99080.59
2019-04-07T11:09:54.299Z,99075.05
2019-04-07T11:12:41.252Z,99077.12
2019-04-07T11:15:28.256Z,99068.34
2019-04-07T11:18:12.349Z,99067.55
2019-04-07T11:21:02.160Z,99063.91
2019-04-07T11:23:40.384Z,99063.33
2019-04-07T11:26:29.911Z,99059.52
2019-04-07T11:29:09.351Z,99050.92
2019-04-07T11:32:12.544Z,99053.23
2019-04-07T11:34:53.032Z,99040.94
2019-04-07T11:37:37.571Z,99040.80
2019-04-07T11:40:41.922Z,99035.73
2019-04-07T11:43:28.651Z,99026.30
2019-04-07T11:46:12.407Z,99025.70
2019-04-07T11:48:50.374Z,99016.44
2019-04-07T11:51:50.269Z,99012.36
2019-04-07T11:54:24.034Z,99010.19
2019-04-07T11:57:10.881Z,99000.36
2019-04-07T12:00:02.441Z,99003.09
2019-04-07T12:02:39.012Z,99003.67
2019-04-07T12:05:33.368Z,99003.73
2019-04-07T12:08:17.140Z,99001.61
2019-04-07T12:11:07.720Z,98995.52
2019-04-07T12:14:05.171Z,98995.86
2019-04-07T12:16:52.440Z,98996.98
2019-04-07T12:19:38.715Z,98999.41
2019-04-07T12:22:22.764Z,98989.06
2019-04-07T12:25:13.609Z,98989.89
2019-04-07T12:28:00.418Z,98985.45
2019-04-07T12:30:51.251Z,98986.14
2019-04-07T12:33:37.433Z,98981.29
2019-04-07T12:36:31.069Z,98981.80
2019-04-07T12:39:18.961Z,98980.53
2019-04-07T12:42:07.152Z,98982.64
2019-04-07T12:44:58.297Z,98980.88
2019-04-07T12:47:37.595Z,98980.63
2019-04-07T12:50:32.811Z,98991.20
2019-04-07T12:53:21.883Z,98982.20
2019-04-07T12:56:13.397Z,98984.44
2019-04-07T12:58:51.665Z,98978.58
2019-04-07T13:01:49.240Z,98964.87
2019-04-07T13:04:27.619Z,98976.80
2019-04-07T13:07:17.117Z,98981.34
2019-04-07T13:10:04.165Z,98977.42
2019-04-07T13:12:59.380Z,98971.81
2019-04-07T13:15:57.109Z,98974.71
2019-04-07T13:18:52.001Z,98962.36
2019-04-07T13:21:26.711Z,98958.74
2019-04-07T13:24:15.461Z,98955.14
2019-04-07T13:26:52.102Z,98951.67
2019-04-07T13:29:43.335Z,98950.73
2019-04-07T13:32:43.099Z,98957.96
2019-04-07T13:35:20.187Z,98951.06
2019-04-07T13:38:17.655Z,98947.73
2019-04-07T13:41:07.258Z,98955.10
2019-04-07T13:43:48.626Z,98952.34
2019-04-07T13:46:51.881Z,98941.02
2019-04-07T13:49:40.045Z,98936.48
2019-04-07T13:52:32.215Z,98933.53
2019-04-07T13:55:15.403Z,98929.77
2019-04-07T13:58:02.626Z,98930.75
2019-04-07T14:01:09.663Z,98919.20
2019-04-07T14:04:01.236Z,98918.55
2019-04-07T14:06:44.909Z,98915.95
2019-04-07T14:09:32.340Z,98909.00
2019-04-07T14:12:12.819Z,98911.16
2019-04-07T14:15:00.883Z,98908.92
2019-04-07T14:17:49.246Z,98906.66
2019-04-07T14:20:38.666Z,98907.20
2019-04-07T14:23:20.547Z,98901.59
2019-04-07T14:26:07.875Z,98899.75
2019-04-07T14:28:44.444Z,98898.45
2019-04-07T14:31:31.344Z,98904.02
2019-04-07T14:34:11.786Z,98899.62
2019-04-07T14:36:54.960Z,98904.94
2019-04-07T14:39:46.609Z,98902.19
2019-04-07T14:42:22.971Z,98904.23
2019-04-07T14:45:12.131Z,98905.77
2019-04-07T14:48:18.921Z,98908.39
2019-04-07T14:51:04.874Z,98910.87
2019-04-07T14:53:59.968Z,98916.20
2019-04-07T14:56:40.695Z,98901.78
2019-04-07T14:59:28.541Z,98901.75
2019-04-07T15:02:00.841Z,98911.62
2019-04-07T15:04:37.914Z,98912.44
2019-04-07T15:07:34.590Z,98910.11
2019-04-07T15:10:36.139Z,98913.00
2019-04-07T15:13:09.130Z,98908.91
2019-04-07T15:15:37.832Z,98911.81
2019-04-07T15:18:07.208Z,98900.86
2019-04-07T15:20:35.947Z,98904.11
2019-04-07T15:23:05.542Z,98898.80
2019-04-07T15:25:34.375Z,98904.31
2019-04-07T15:28:03.142Z,98899.42
2019-04-07T15:30:31.934Z,98912.13
2019-04-07T15:33:02.676Z,98895.69
2019-04-07T15:35:31.680Z,98900.24
2019-04-07T15:38:01.239Z,98901.53
2019-04-07T15:40:30.820Z,98894.64
2019-04-07T15:43:04.299Z,98896.13
2019-04-07T15:45:32.205Z,98893.07
2019-04-07T15:48:01.130Z,98898.27
2019-04-07T15:50:30.454Z,98895.84
2019-04-07T15:52:59.991Z,98900.66
2019-04-07T15:55:43.213Z,98895.45
2019-04-07T15:57:59.707Z,98903.74
2019-04-07T16:00:32.368Z,98894.11
2019-04-07T16:03:00.117Z,98903.86
2019-04-07T16:05:28.968Z,98899.15
2019-04-07T16:07:57.854Z,98896.59
2019-04-07T16:10:26.647Z,98898.09
2019-04-07T16:12:58.730Z,98889.63
2019-04-07T16:15:26.236Z,98898.41
2019-04-07T16:17:56.703Z,98904.31
2019-04-07T16:20:31.592Z,98901.80
2019-04-07T16:22:56.338Z,98899.48
2019-04-07T16:25:27.764Z,98898.51
2019-04-07T16:27:56.620Z,98901.17
2019-04-07T16:30:25.982Z,98894.25
2019-04-07T16:32:54.867Z,98898.64
2019-04-07T16:35:24.565Z,98894.06
2019-04-07T16:37:54.210Z,98903.06
2019-04-07T16:40:23.840Z,98900.88
2019-04-07T16:43:05.561Z,98899.62
2019-04-07T16:45:23.465Z,98899.55
2019-04-07T16:47:53.083Z,98901.22
2019-04-07T16:50:22.906Z,98897.07
2019-04-07T16:52:51.761Z,98900.02
2019-04-07T16:55:35.007Z,98900.02
2019-04-07T16:58:04.693Z,98907.15
2019-04-07T17:00:34.414Z,98906.20
2019-04-07T17:03:06.316Z,98906.09
2019-04-07T17:05:36.252Z,98905.50
2019-04-07T17:08:05.556Z,98905.06
2019-04-07T17:10:35.423Z,98910.36
2019-04-07T17:13:15.463Z,98911.87
2019-04-07T17:15:39.564Z,98915.52
2019-04-07T17:18:10.220Z,98910.09
2019-04-07T17:20:41.233Z,98915.19
2019-04-07T17:23:11.114Z,98918.30
2019-04-07T17:25:40.024Z,98919.39
2019-04-07T17:28:12.116Z,98923.00
2019-04-07T17:30:39.607Z,98929.25
2019-04-07T17:33:08.454Z,98927.31
2019-04-07T17:35:37.300Z,98927.81
2019-04-07T17:38:08.546Z,98929.36
2019-04-07T17:40:46.169Z,98932.95
2019-04-07T17:43:40.109Z,98931.75
2019-04-07T17:46:34.237Z,98932.61
2019-04-07T17:49:31.023Z,98942.33
2019-04-07T17:52:17.140Z,98937.66
2019-04-07T17:55:06.285Z,98944.11
2019-04-07T17:57:54.745Z,98952.66
2019-04-07T18:00:58.588Z,98951.08
2019-04-07T18:03:47.856Z,98951.38
2019-04-07T18:06:32.182Z,98949.78
2019-04-07T18:09:35.974Z,98943.99
2019-04-07T18:12:33.012Z,98937.86
2019-04-07T18:15:30.247Z,98941.45
2019-04-07T18:18:23.262Z,98943.36
2019-04-07T18:20:56.073Z,98942.61
2019-04-07T18:23:40.311Z,98945.76
2019-04-07T18:26:35.383Z,98943.17
2019-04-07T18:29:28.762Z,98943.14
2019-04-07T18:32:23.893Z,98946.20
2019-04-07T18:35:09.867Z,98945.76
2019-04-07T18:37:56.666Z,98951.17
2019-04-07T18:40:40.806Z,98950.70
2019-04-07T18:43:50.752Z,98947.59
2019-04-07T18:46:37.829Z,98953.34
2019-04-07T18:49:27.077Z,98954.06
2019-04-07T18:52:22.273Z,98947.11
2019-04-07T18:55:14.572Z,98950.25
2019-04-07T18:57:56.137Z,98948.71
2019-04-07T19:00:50.771Z,98950.20
2019-04-07T19:03:29.686Z,98943.99
2019-04-07T19:06:16.962Z,98939.50
2019-04-07T19:08:56.438Z,98943.05
2019-04-07T19:11:39.877Z,98939.00
2019-04-07T19:14:40.148Z,98939.72
2019-04-07T19:17:08.549Z,98938.20
2019-04-07T19:19:49.251Z,98936.44
2019-04-07T19:22:36.717Z,98930.47
2019-04-07T19:25:27.837Z,98933.39
2019-04-07T19:28:16.011Z,98935.03
2019-04-07T19:31:04.462Z,98931.06
2019-04-07T19:33:43.980Z,98923.77
2019-04-07T19:36:35.614Z,98929.20
2019-04-07T19:39:40.566Z,98927.00
2019-04-07T19:42:39.115Z,98923.13
2019-04-07T19:45:22.354Z,98913.77
2019-04-07T19:48:11.220Z,98915.30
2019-04-07T19:50:59.815Z,98910.48
2019-04-07T19:53:47.689Z,98912.06
2019-04-07T19:56:45.738Z,98908.97
2019-04-07T19:59:32.415Z,98913.41
2019-04-07T20:02:20.587Z,98913.69
2019-04-07T20:05:08.778Z,98910.67
2019-04-07T20:07:51.247Z,98906.70
2019-04-07T20:10:42.547Z,98908.66
2019-04-07T20:13:29.171Z,98909.77
2019-04-07T20:16:20.594Z,98906.97
2019-04-07T20:19:08.826Z,98906.80
2019-04-07T20:21:58.115Z,98906.97
2019-04-07T20:24:38.061Z,98902.87
2019-04-07T20:27:28.091Z,98902.16
2019-04-07T20:30:04.374Z,98906.47
2019-04-07T20:32:37.407Z,98906.72
2019-04-07T20:35:35.708Z,98900.55
2019-04-07T20:38:28.388Z,98896.71
2019-04-07T20:41:10.241Z,98896.58
2019-04-07T20:43:46.341Z,98891.77
2019-04-07T20:46:38.028Z,98895.46
2019-04-07T20:49:24.902Z,98895.59
2019-04-07T20:52:31.982Z,98894.31
2019-04-07T20:55:26.414Z,98893.16
2019-04-07T20:58:23.169Z,98895.77
2019-04-07T21:01:16.319Z,98892.72
2019-04-07T21:04:04.334Z,98888.97
2019-04-07T21:06:51.549Z,98891.71
2019-04-07T21:09:33.372Z,98884.48
2019-04-07T21:12:38.978Z,98885.54
2019-04-07T21:15:43.155Z,98886.23
2019-04-07T21:18:22.299Z,98882.94
2019-04-07T21:21:01.958Z,98880.51
2019-04-07T21:23:43.250Z,98880.98
2019-04-07T21:26:34.509Z,98880.78
2019-04-07T21:29:22.706Z,98877.41
2019-04-07T21:32:02.339Z,98874.68
2019-04-07T21:34:49.377Z,98866.30
2019-04-07T21:37:35.689Z,98869.06
2019-04-07T21:40:14.430Z,98867.16
2019-04-07T21:42:58.303Z,98862.89
2019-04-07T21:45:52.020Z,98863.58
2019-04-07T21:48:48.157Z,98864.64
2019-04-07T21:51:46.533Z,98865.11
2019-04-07T21:54:28.124Z,98857.91
2019-04-07T21:57:14.018Z,98855.05
2019-04-07T22:00:04.967Z,98855.66
2019-04-07T22:02:59.073Z,98852.03
2019-04-07T22:05:57.138Z,98853.30
2019-04-07T22:08:42.124Z,98862.03
2019-04-07T22:11:08.104Z,98859.48
2019-04-07T22:13:36.801Z,98854.02
2019-04-07T22:16:05.886Z,98848.92
2019-04-07T22:18:37.412Z,98855.66
2019-04-07T22:21:05.236Z,98848.48
2019-04-07T22:23:33.830Z,98842.30
2019-04-07T22:26:02.577Z,98849.13
2019-04-07T22:28:31.752Z,98849.69
2019-04-07T22:31:01.442Z,98858.59
2019-04-07T22:33:32.366Z,98852.41
2019-04-07T22:36:00.499Z,98850.80
2019-04-07T22:38:29.405Z,98843.39
2019-04-07T22:40:58.453Z,98844.49
2019-04-07T22:43:28.243Z,98841.38
2019-04-07T22:46:05.393Z,98835.17
2019-04-07T22:48:28.435Z,98833.26
2019-04-07T22:50:58.874Z,98834.11
2019-04-07T22:53:30.928Z,98827.92
2019-04-07T22:55:59.031Z,98826.64
2019-04-07T22:58:27.923Z,98827.36
2019-04-07T23:00:56.619Z,98825.32
2019-04-07T23:03:26.072Z,98820.91
2019-04-07T23:05:55.487Z,98816.27
2019-04-07T23:08:24.423Z,98813.89
2019-04-07T23:10:53.142Z,98813.15
2019-04-07T23:13:21.814Z,98824.39
2019-04-07T23:15:50.447Z,98822.27
2019-04-07T23:18:20.696Z,98815.84
2019-04-07T23:20:49.570Z,98816.98
2019-04-07T23:23:18.208Z,98812.42
2019-04-07T23:25:46.855Z,98814.59
2019-04-07T23:28:15.485Z,98807.95
2019-04-07T23:30:45.021Z,98800.45
2019-04-07T23:33:14.621Z,98799.13
2019-04-07T23:35:43.344Z,98801.39
2019-04-07T23:38:11.806Z,98802.63
2019-04-07T23:40:40.481Z,98803.31
2019-04-07T23:43:09.213Z,98796.36
2019-04-07T23:45:37.896Z,98799.70
2019-04-07T23:48:07.014Z,98792.16
2019-04-07T23:50:35.798Z,98793.88
2019-04-07T23:53:40.786Z,98783.88
2019-04-07T23:56:10.065Z,98787.40
2019-04-07T23:58:38.768Z,98783.56
